Time;durP1;ratioP1;P1;durP2;ratioP2;P2;SDS_P1;SDS_P2;PMS_P1;PMS_P2;Temp;Humidity;BMP_temperature;BMP_pressure;BME280_temperature;BME280_humidity;BME280_pressure;Samples;Min_cycle;Max_cycle;Signal;HPM_P1;HPM_P2
2021/11/05 00:01:22;;;;;;;581.03;46.03;;;;;;;17.10;43.26;100034.31;5073494;28;20173;-70
2021/11/05 00:03:48;;;;;;;851.70;58.03;;;;;;;17.32;43.50;100044.03;5091358;28;20032;-69
2021/11/05 00:06:14;;;;;;;890.80;57.00;;;;;;;16.92;43.57;100033.91;5073208;28;20121;-69
2021/11/05 00:08:40;;;;;;;813.85;56.13;;;;;;;17.12;43.51;100018.84;5038758;28;20044;-70
2021/11/05 00:11:06;;;;;;;749.70;48.42;;;;;;;16.68;44.49;99992.97;5070928;28;20071;-70
2021/11/05 00:13:32;;;;;;;607.45;50.90;;;;;;;17.04;43.73;100014.44;5071134;28;20082;-70
2021/11/05 00:15:58;;;;;;;762.13;47.70;;;;;;;17.00;44.16;100001.59;5054346;28;20036;-70
2021/11/05 00:18:23;;;;;;;892.42;64.13;;;;;;;17.24;43.51;100007.41;5070841;28;20051;-70
2021/11/05 00:20:49;;;;;;;886.85;57.47;;;;;;;17.15;43.55;100005.03;5070826;28;20040;-69
2021/11/05 00:23:16;;;;;;;817.65;52.83;;;;;;;17.19;43.71;100006.34;5054374;28;20052;-71
2021/11/05 00:25:44;;;;;;;997.72;62.10;;;;;;;17.35;44.14;100000.69;5072355;28;20495;-70
2021/11/05 00:28:10;;;;;;;545.25;45.05;;;;;;;17.45;43.47;100007.44;5072905;28;20131;-69
2021/11/05 00:30:35;;;;;;;354.48;39.53;;;;;;;17.69;43.00;100009.72;5039764;28;20177;-69
2021/11/05 00:33:02;;;;;;;670.08;47.05;;;;;;;17.46;43.71;100009.13;5056360;28;20044;-69
2021/11/05 00:35:27;;;;;;;730.85;51.50;;;;;;;17.43;43.17;100003.25;5055944;28;20069;-67
2021/11/05 00:37:53;;;;;;;645.70;49.15;;;;;;;17.65;42.94;100007.63;5072539;28;20036;-70
2021/11/05 00:40:20;;;;;;;585.17;48.00;;;;;;;17.95;42.82;100009.09;5072771;28;20046;-69
2021/11/05 00:42:46;;;;;;;869.17;60.65;;;;;;;17.54;43.64;100013.53;5072652;28;20063;-69
2021/11/05 00:45:12;;;;;;;650.10;48.30;;;;;;;17.76;43.22;100021.34;5055581;28;20515;-68
2021/11/05 00:47:38;;;;;;;452.20;44.85;;;;;;;17.46;43.64;99976.03;5055752;28;20139;-71
2021/11/05 00:50:05;;;;;;;881.17;65.10;;;;;;;17.77;43.72;100012.28;5055898;28;20135;-73
2021/11/05 00:52:31;;;;;;;429.30;44.75;;;;;;;17.28;44.27;100015.94;5056072;28;20040;-70
2021/11/05 00:54:56;;;;;;;724.38;53.72;;;;;;;17.67;43.66;100005.56;5055799;28;20044;-71
2021/11/05 00:57:22;;;;;;;582.78;51.97;;;;;;;17.69;43.69;99990.09;5090800;28;20044;-71
2021/11/05 00:59:48;;;;;;;788.65;56.55;;;;;;;17.48;43.94;100004.34;5039199;28;20044;-70
2021/11/05 01:02:14;;;;;;;747.30;56.88;;;;;;;17.82;43.54;99998.25;5055599;28;20052;-70
2021/11/05 01:04:40;;;;;;;965.20;70.22;;;;;;;17.99;43.35;100013.88;5055796;28;20357;-70
2021/11/05 01:07:06;;;;;;;284.85;39.40;;;;;;;18.07;43.00;99994.06;5090035;28;20474;-70
2021/11/05 01:09:32;;;;;;;412.30;43.65;;;;;;;17.95;43.32;99993.81;5056018;28;20495;-70
2021/11/05 01:11:58;;;;;;;421.33;47.13;;;;;;;17.88;43.46;99986.72;5072267;28;20036;-70
2021/11/05 01:14:23;;;;;;;384.35;43.22;;;;;;;17.73;44.06;99983.28;5055741;28;20491;-70
2021/11/05 01:16:49;;;;;;;446.55;44.90;;;;;;;17.89;43.94;99940.00;5022482;28;20122;-69
2021/11/05 01:19:15;;;;;;;484.20;48.03;;;;;;;17.74;43.95;99971.53;5072336;28;20050;-70
2021/11/05 01:21:41;;;;;;;232.43;38.78;;;;;;;18.15;43.69;99967.03;5072359;28;20435;-70
2021/11/05 01:24:07;;;;;;;492.98;47.83;;;;;;;18.23;43.20;99934.63;5055676;28;20134;-71
2021/11/05 01:26:33;;;;;;;244.05;38.15;;;;;;;18.24;43.28;99931.72;5055798;28;20043;-70
2021/11/05 01:28:59;;;;;;;194.05;37.80;;;;;;;18.34;42.91;99934.84;5055638;28;20040;-69
2021/11/05 01:31:24;;;;;;;233.82;39.17;;;;;;;18.24;43.47;99952.38;5072328;28;20039;-69
2021/11/05 01:33:51;;;;;;;304.88;43.22;;;;;;;17.80;44.24;99917.00;5072170;28;20106;-70
2021/11/05 01:36:16;;;;;;;288.63;39.40;;;;;;;17.92;44.47;99940.44;5055480;28;20051;-70
2021/11/05 01:38:42;;;;;;;208.73;38.92;;;;;;;17.80;44.47;99946.56;5039019;28;20047;-71
2021/11/05 01:41:08;;;;;;;234.15;39.85;;;;;;;18.12;44.60;99941.38;5055590;28;20073;-72
2021/11/05 01:43:35;;;;;;;178.20;37.35;;;;;;;18.34;43.90;99951.00;5056163;28;20040;-70
2021/11/05 01:46:00;;;;;;;229.70;38.60;;;;;;;18.60;43.32;99955.69;5055419;28;20056;-69
2021/11/05 01:48:26;;;;;;;193.77;38.03;;;;;;;18.25;43.58;99957.56;5058355;28;20066;-67
2021/11/05 01:50:54;;;;;;;180.18;37.38;;;;;;;18.78;43.17;99953.25;5059043;28;20043;-69
2021/11/05 01:53:20;;;;;;;229.00;38.95;;;;;;;18.35;43.81;99936.53;5075755;28;20059;-68
2021/11/05 01:55:46;;;;;;;215.50;39.53;;;;;;;18.07;44.07;99951.06;5094040;28;20044;-69
2021/11/05 01:58:12;;;;;;;165.93;38.05;;;;;;;18.10;43.83;99921.09;5042502;28;20055;-69
2021/11/05 02:00:39;;;;;;;161.40;35.33;;;;;;;18.56;43.34;99949.03;5075658;28;20109;-69
2021/11/05 02:03:05;;;;;;;144.48;34.72;;;;;;;18.84;42.78;99940.84;5075908;28;20039;-68
2021/11/05 02:05:31;;;;;;;167.10;36.97;;;;;;;18.53;43.79;99940.56;5058778;28;20494;-69
2021/11/05 02:07:57;;;;;;;148.60;33.13;;;;;;;18.48;43.89;99932.25;5075348;28;20097;-70
2021/11/05 02:10:26;;;;;;;158.90;34.25;;;;;;;18.64;43.95;99940.81;5075549;28;20036;-67
2021/11/05 02:12:53;;;;;;;160.43;33.90;;;;;;;18.91;43.32;99937.16;5058808;28;20047;-69
2021/11/05 02:15:19;;;;;;;194.93;39.55;;;;;;;18.25;44.48;99937.94;5041881;28;20074;-70
2021/11/05 02:17:47;;;;;;;160.32;36.00;;;;;;;18.48;43.99;99910.75;5058788;28;20048;-71
2021/11/05 02:20:16;;;;;;;166.32;34.80;;;;;;;18.91;43.62;99926.41;5058689;28;20067;-70
2021/11/05 02:22:42;;;;;;;156.68;35.88;;;;;;;18.92;42.67;99919.13;5093440;28;20047;-69
2021/11/05 02:25:09;;;;;;;164.07;35.20;;;;;;;19.04;43.48;99928.25;5058643;28;20040;-69
2021/11/05 02:27:35;;;;;;;206.55;38.72;;;;;;;18.65;43.56;99937.06;5042250;28;20101;-70
2021/11/05 02:30:04;;;;;;;176.02;35.58;;;;;;;19.39;42.37;99921.69;5058673;28;20051;-70
2021/11/05 02:32:30;;;;;;;176.63;34.67;;;;;;;18.74;43.13;99922.44;5058519;28;20109;-69
2021/11/05 02:34:55;;;;;;;181.25;36.50;;;;;;;18.60;43.25;99923.41;5074687;28;20475;-71
2021/11/05 02:37:25;;;;;;;267.02;39.88;;;;;;;18.86;43.65;99919.94;5041517;28;20396;-69
2021/11/05 02:39:52;;;;;;;202.93;37.55;;;;;;;18.93;43.55;99912.72;5074768;28;20040;-71
2021/11/05 02:42:18;;;;;;;201.70;36.08;;;;;;;18.62;43.84;99893.63;5075063;28;20048;-69
2021/11/05 02:44:44;;;;;;;205.70;36.97;;;;;;;18.85;43.55;99872.53;5075239;28;20036;-68
2021/11/05 02:47:25;;;;;;;181.68;35.65;;;;;;;19.17;42.98;99869.88;5041654;28;20067;-71
2021/11/05 02:49:52;;;;;;;181.73;34.72;;;;;;;18.91;43.46;99853.72;5041559;28;20510;-70
2021/11/05 02:52:18;;;;;;;185.10;34.67;;;;;;;18.62;43.77;99839.81;5074637;28;20373;-68
2021/11/05 02:54:44;;;;;;;169.48;34.90;;;;;;;18.74;44.01;99871.28;5074530;28;20515;-70
2021/11/05 02:57:10;;;;;;;173.00;37.47;;;;;;;19.03;43.11;99859.31;5041229;28;20054;-71
2021/11/05 02:59:37;;;;;;;165.88;37.08;;;;;;;18.91;43.39;99867.19;5092385;28;20609;-68
2021/11/05 03:02:04;;;;;;;152.32;35.67;;;;;;;18.87;44.73;99857.84;5057539;28;20043;-69
2021/11/05 03:04:30;;;;;;;140.88;34.03;;;;;;;19.18;43.48;99854.53;5074165;28;20055;-69
2021/11/05 03:07:02;;;;;;;151.52;35.53;;;;;;;19.58;42.95;99883.13;5074146;28;20143;-68
2021/11/05 03:09:33;;;;;;;122.25;33.22;;;;;;;19.89;42.71;99857.16;5074492;28;20042;-69
2021/11/05 03:12:00;;;;;;;127.13;32.80;;;;;;;19.04;43.47;99856.41;5040838;28;20067;-69
2021/11/05 03:14:26;;;;;;;119.03;32.55;;;;;;;19.29;43.22;99862.03;5073945;28;20097;-68
2021/11/05 03:16:53;;;;;;;112.78;32.28;;;;;;;19.69;42.81;99855.53;5073821;28;20450;-70
2021/11/05 03:19:19;;;;;;;116.35;33.03;;;;;;;18.91;43.91;99869.03;5040637;28;20065;-69
2021/11/05 03:21:45;;;;;;;116.82;33.50;;;;;;;19.15;43.82;99846.88;5092177;28;20036;-69
2021/11/05 03:24:10;;;;;;;115.30;32.58;;;;;;;19.33;43.34;99855.16;5057624;28;20113;-68
2021/11/05 03:26:36;;;;;;;117.50;31.77;;;;;;;19.64;42.54;99853.47;5057066;28;20411;-68
2021/11/05 03:29:03;;;;;;;98.65;30.98;;;;;;;19.62;42.81;99855.53;5073489;28;20048;-69
2021/11/05 03:31:29;;;;;;;102.93;31.70;;;;;;;19.54;42.93;99853.06;5057189;28;20036;-68
2021/11/05 03:33:55;;;;;;;121.63;33.70;;;;;;;19.25;43.33;99853.50;5073437;28;20032;-69
2021/11/05 03:36:20;;;;;;;114.97;33.20;;;;;;;19.32;43.20;99858.91;5056891;28;20056;-69
2021/11/05 03:38:46;;;;;;;105.82;31.73;;;;;;;19.71;42.05;99821.94;5040190;28;20052;-68
2021/11/05 03:41:12;;;;;;;115.18;32.83;;;;;;;19.64;42.51;99836.47;5057216;28;20046;-70
2021/11/05 03:43:38;;;;;;;101.43;31.10;;;;;;;20.03;41.33;99847.13;5073927;28;20093;-70
2021/11/05 03:46:06;;;;;;;109.15;32.63;;;;;;;19.66;42.35;99820.94;5073348;28;20048;-69
2021/11/05 03:48:35;;;;;;;107.03;32.47;;;;;;;19.51;42.65;99821.16;5073333;28;20047;-70
2021/11/05 03:51:02;;;;;;;122.15;33.08;;;;;;;19.53;43.31;99818.25;5057076;28;20567;-69
2021/11/05 03:53:29;;;;;;;102.18;31.83;;;;;;;19.49;43.31;99823.25;5056830;28;20352;-68
2021/11/05 03:55:54;;;;;;;109.82;34.72;;;;;;;19.27;43.17;99829.03;5073180;28;20046;-71
2021/11/05 03:58:20;;;;;;;97.65;29.73;;;;;;;19.89;42.25;99832.03;5040006;28;20035;-69
2021/11/05 04:00:46;;;;;;;91.68;32.63;;;;;;;19.80;42.39;99822.53;5039840;28;20516;-68
2021/11/05 04:03:12;;;;;;;89.57;29.70;;;;;;;20.00;41.85;99828.69;5073569;28;20040;-67
2021/11/05 04:05:38;;;;;;;90.68;29.85;;;;;;;20.10;41.62;99837.97;5056442;28;20101;-69
2021/11/05 04:08:04;;;;;;;83.32;29.40;;;;;;;20.31;41.33;99830.66;5056575;28;20063;-69
2021/11/05 04:10:29;;;;;;;85.93;29.88;;;;;;;19.73;41.55;99795.59;5055814;28;20480;-70
2021/11/05 04:12:57;;;;;;;84.70;29.02;;;;;;;20.38;40.87;99829.56;5039711;28;20036;-68
2021/11/05 04:15:23;;;;;;;84.85;29.98;;;;;;;19.96;41.74;99804.00;5056543;28;20040;-70
2021/11/05 04:17:49;;;;;;;89.20;30.15;;;;;;;20.07;41.47;99797.13;5073098;28;20046;-70
2021/11/05 04:20:15;;;;;;;87.55;30.88;;;;;;;19.98;41.56;99801.09;5073009;28;20036;-74
2021/11/05 04:22:41;;;;;;;87.82;30.67;;;;;;;19.71;42.27;99796.88;5056403;28;20066;-69
2021/11/05 04:25:07;;;;;;;75.45;30.13;;;;;;;20.05;42.16;99796.50;5039451;28;20495;-69
2021/11/05 04:27:33;;;;;;;81.78;30.92;;;;;;;19.69;42.34;99807.88;5039217;28;20044;-70
2021/11/05 04:29:59;;;;;;;79.90;30.45;;;;;;;19.77;42.06;99783.34;5055944;28;20389;-69
2021/11/05 04:32:25;;;;;;;76.20;28.90;;;;;;;20.25;41.02;99789.16;5039383;28;20036;-69
2021/11/05 04:34:51;;;;;;;70.22;29.00;;;;;;;19.97;41.52;99781.41;5055856;28;20142;-69
2021/11/05 04:37:16;;;;;;;79.75;30.52;;;;;;;19.92;41.60;99801.97;5055588;28;20048;-73
2021/11/05 04:39:42;;;;;;;82.05;31.02;;;;;;;19.68;42.31;99781.13;5039597;28;20036;-68
2021/11/05 04:42:08;;;;;;;77.55;29.38;;;;;;;19.93;41.65;99745.13;5055770;28;20052;-68
2021/11/05 04:44:34;;;;;;;74.60;30.35;;;;;;;20.08;41.19;99777.22;5055563;28;20071;-66
2021/11/05 04:47:00;;;;;;;81.85;29.27;;;;;;;20.05;41.16;99774.91;5055567;28;20036;-68
2021/11/05 04:49:26;;;;;;;71.18;30.83;;;;;;;19.63;42.00;99791.72;5090522;28;20402;-69
2021/11/05 04:51:52;;;;;;;73.50;28.73;;;;;;;20.13;41.29;99779.25;5072659;28;20043;-67
2021/11/05 04:54:18;;;;;;;69.82;28.65;;;;;;;20.07;41.16;99802.50;5072328;28;20040;-69
2021/11/05 04:56:45;;;;;;;75.35;30.60;;;;;;;19.89;41.54;99730.44;5072572;28;20048;-68
2021/11/05 04:59:11;;;;;;;73.47;28.30;;;;;;;20.13;41.25;99768.47;5072278;28;20071;-67
2021/11/05 05:01:37;;;;;;;77.90;30.90;;;;;;;20.11;41.16;99772.19;5072253;28;20718;-69
2021/11/05 05:04:04;;;;;;;66.22;29.63;;;;;;;19.80;41.20;99737.09;5072547;28;20454;-67
2021/11/05 05:06:30;;;;;;;70.80;28.45;;;;;;;20.10;40.93;99767.03;5089937;28;20118;-68
2021/11/05 05:08:55;;;;;;;72.38;30.00;;;;;;;20.18;40.68;99768.66;5072258;28;20039;-68
2021/11/05 05:11:21;;;;;;;63.83;27.98;;;;;;;20.11;40.84;99739.84;5055575;28;20518;-68
2021/11/05 05:13:47;;;;;;;65.72;27.80;;;;;;;20.23;40.50;99772.38;5055970;28;20051;-67
2021/11/05 05:16:13;;;;;;;64.13;27.75;;;;;;;20.21;40.07;99774.47;5071844;28;20557;-66
2021/11/05 05:18:38;;;;;;;68.22;28.73;;;;;;;20.33;40.13;99777.31;5072203;28;20381;-68
2021/11/05 05:21:04;;;;;;;72.28;28.35;;;;;;;20.57;39.06;99760.31;5056200;28;20394;-68
2021/11/05 05:23:30;;;;;;;57.53;27.88;;;;;;;20.81;38.66;99781.09;5059536;28;20043;-70
2021/11/05 05:25:56;;;;;;;54.35;27.65;;;;;;;20.82;38.53;99769.28;5076229;28;20040;-69
2021/11/05 05:28:21;;;;;;;61.33;28.77;;;;;;;20.22;39.84;99749.13;5076357;28;20648;-70
2021/11/05 05:30:47;;;;;;;66.70;28.58;;;;;;;20.49;39.40;99749.78;5059730;28;20105;-68
2021/11/05 05:33:13;;;;;;;60.33;28.20;;;;;;;20.44;39.41;99746.91;5059019;28;20496;-67
2021/11/05 05:35:39;;;;;;;59.80;27.50;;;;;;;20.44;39.31;99731.56;5076221;28;20070;-69
2021/11/05 05:38:04;;;;;;;57.42;28.40;;;;;;;20.10;39.94;99751.69;5076008;28;20051;-67
2021/11/05 05:40:30;;;;;;;61.35;28.40;;;;;;;20.71;39.00;99756.47;5076172;28;20470;-67
2021/11/05 05:42:56;;;;;;;60.75;27.90;;;;;;;20.27;39.40;99726.91;5076026;28;20299;-69
2021/11/05 05:45:22;;;;;;;61.08;28.08;;;;;;;20.65;38.98;99741.97;5093653;28;20054;-68
2021/11/05 05:47:48;;;;;;;53.40;26.33;;;;;;;20.92;38.65;99753.38;5075936;28;20032;-69
2021/11/05 05:50:15;;;;;;;61.88;29.10;;;;;;;20.77;38.75;99763.69;5093771;28;20146;-71
2021/11/05 05:52:41;;;;;;;59.13;28.42;;;;;;;20.71;38.98;99753.78;5075667;28;20042;-70
2021/11/05 05:55:09;;;;;;;55.03;26.15;;;;;;;20.84;38.85;99765.28;5093581;28;20047;-69
2021/11/05 05:57:35;;;;;;;53.63;27.88;;;;;;;20.88;38.73;99744.09;5058972;28;20036;-70
2021/11/05 06:00:03;;;;;;;60.55;27.95;;;;;;;20.62;39.06;99771.28;5093472;28;20150;-69
2021/11/05 06:02:30;;;;;;;60.05;28.05;;;;;;;20.63;38.78;99724.34;5093414;28;20101;-70
2021/11/05 06:04:56;;;;;;;55.65;28.10;;;;;;;20.58;39.12;99732.28;5058161;28;20044;-70
2021/11/05 06:07:21;;;;;;;57.95;27.42;;;;;;;20.55;38.94;99725.47;5093149;28;20197;-70
2021/11/05 06:09:47;;;;;;;60.15;28.63;;;;;;;20.51;39.28;99735.03;5093802;28;20040;-69
2021/11/05 06:12:13;;;;;;;60.08;27.45;;;;;;;21.07;38.39;99740.38;5041969;28;20456;-68
2021/11/05 06:14:39;;;;;;;58.53;27.90;;;;;;;20.75;38.15;99722.59;5043845;28;20047;-67
2021/11/05 06:17:05;;;;;;;57.80;26.50;;;;;;;20.87;38.61;99739.72;5058519;28;20134;-64
2021/11/05 06:19:31;;;;;;;55.58;27.05;;;;;;;21.36;37.46;99731.56;5074727;28;20047;-65
2021/11/05 06:21:57;;;;;;;53.00;25.90;;;;;;;21.12;37.38;99743.25;5074779;28;20415;-65
2021/11/05 06:24:23;;;;;;;56.88;26.50;;;;;;;21.00;38.02;99745.03;5041478;28;20044;-66
2021/11/05 06:26:49;;;;;;;54.13;25.38;;;;;;;20.94;37.75;99768.31;5058939;28;20063;-64
2021/11/05 06:29:15;;;;;;;57.05;26.92;;;;;;;21.00;37.77;99775.53;5091718;28;20184;-66
2021/11/05 06:31:42;;;;;;;54.03;26.25;;;;;;;20.49;38.97;99761.41;5057197;28;20460;-65
2021/11/05 06:34:08;;;;;;;53.65;26.60;;;;;;;20.67;38.58;99747.16;5072894;28;20044;-65
2021/11/05 06:36:34;;;;;;;53.40;24.77;;;;;;;20.54;38.18;99756.19;5073424;28;20079;-66
2021/11/05 06:39:00;;;;;;;48.20;25.08;;;;;;;21.13;37.93;99759.22;5091060;28;20040;-66
2021/11/05 06:41:26;;;;;;;53.70;25.42;;;;;;;20.93;37.79;99752.31;5073403;28;20044;-65
2021/11/05 06:43:53;;;;;;;52.45;25.45;;;;;;;20.97;37.83;99753.59;5073127;28;20117;-65
2021/11/05 06:46:19;;;;;;;59.72;25.77;;;;;;;20.98;37.86;99734.47;5093003;28;20130;-65
2021/11/05 06:48:45;;;;;;;50.47;26.30;;;;;;;20.64;38.25;99732.25;5057988;28;20064;-64
2021/11/05 06:51:11;;;;;;;55.17;25.55;;;;;;;20.81;38.22;99721.69;5092528;28;20040;-66
2021/11/05 06:53:37;;;;;;;47.85;24.63;;;;;;;20.95;38.01;99721.41;5074521;28;20044;-65
2021/11/05 06:56:04;;;;;;;51.88;24.00;;;;;;;20.90;37.61;99733.88;5057567;28;20040;-65
2021/11/05 06:58:34;;;;;;;46.33;24.17;;;;;;;20.68;38.29;99755.03;5074442;28;20050;-66
2021/11/05 07:01:00;;;;;;;47.75;23.92;;;;;;;20.52;38.53;99742.09;5074226;28;20040;-66
2021/11/05 07:03:26;;;;;;;46.17;23.35;;;;;;;20.76;38.21;99735.03;5092298;28;20607;-66
2021/11/05 07:05:52;;;;;;;48.45;23.35;;;;;;;21.03;37.27;99725.69;5057598;28;20087;-67
2021/11/05 07:08:17;;;;;;;43.55;23.83;;;;;;;21.01;37.15;99731.31;5074322;28;20100;-66
2021/11/05 07:10:45;;;;;;;46.13;23.05;;;;;;;20.71;37.89;99757.28;5091995;28;20079;-65
2021/11/05 07:13:12;;;;;;;49.13;23.25;;;;;;;20.66;38.29;99730.16;5074417;28;20039;-66
2021/11/05 07:15:37;;;;;;;47.72;24.60;;;;;;;20.69;37.98;99704.59;5092237;28;20109;-65
2021/11/05 07:18:03;;;;;;;47.72;23.15;;;;;;;21.00;37.21;99734.22;5074158;28;20492;-66
2021/11/05 07:20:32;;;;;;;45.55;24.15;;;;;;;20.90;37.33;99691.50;5074126;28;20420;-66
2021/11/05 07:22:58;;;;;;;48.67;24.88;;;;;;;20.88;37.66;99717.09;5074549;28;20424;-71
2021/11/05 07:25:24;;;;;;;46.83;24.02;;;;;;;21.07;37.26;99726.88;5092155;28;20105;-71
2021/11/05 07:27:49;;;;;;;52.50;25.20;;;;;;;20.85;37.45;99722.94;5091277;28;20040;-69
2021/11/05 07:30:15;;;;;;;47.33;24.55;;;;;;;20.74;37.80;99702.84;5073964;28;20110;-70
2021/11/05 07:32:45;;;;;;;49.30;24.45;;;;;;;21.10;36.98;99700.25;5073511;28;20036;-73
2021/11/05 07:35:13;;;;;;;44.93;23.80;;;;;;;21.42;36.78;99701.75;5073765;28;20051;-76
2021/11/05 07:37:39;;;;;;;45.72;23.38;;;;;;;20.68;37.53;99674.06;5074037;28;20720;-72
2021/11/05 07:40:08;;;;;;;46.15;23.23;;;;;;;21.17;36.75;99673.19;5092093;28;20127;-75
2021/11/05 07:42:36;;;;;;;49.28;25.20;;;;;;;21.39;36.45;99653.56;5073946;28;20040;-70
2021/11/05 07:45:03;;;;;;;49.42;25.02;;;;;;;21.13;37.17;99688.16;5093514;28;20138;-73
2021/11/05 07:47:29;;;;;;;47.47;24.83;;;;;;;20.93;37.36;99682.13;5041653;28;20040;-73
2021/11/05 07:49:55;;;;;;;48.03;24.10;;;;;;;20.92;37.38;99700.22;5057519;28;20047;-72
2021/11/05 07:52:21;;;;;;;47.72;24.73;;;;;;;21.02;36.54;99659.22;5057019;28;20047;-73
2021/11/05 07:54:46;;;;;;;45.72;23.60;;;;;;;20.71;37.15;99641.22;5073231;28;20931;-72
2021/11/05 07:57:13;;;;;;;44.75;22.33;;;;;;;20.84;37.61;99676.19;5073445;28;20040;-75
2021/11/05 07:59:39;;;;;;;42.00;21.80;;;;;;;20.50;37.37;99616.53;5056578;28;20113;-74
2021/11/05 08:02:05;;;;;;;40.15;21.17;;;;;;;20.60;37.65;99666.25;5091555;28;20046;-75
2021/11/05 08:04:31;;;;;;;37.80;20.98;;;;;;;20.59;37.07;99659.19;5091495;28;20134;-73
2021/11/05 08:06:57;;;;;;;38.03;20.95;;;;;;;20.48;37.64;99672.59;5073400;28;20044;-73
2021/11/05 08:09:23;;;;;;;41.20;21.70;;;;;;;20.33;37.70;99658.63;5091474;28;20040;-75
2021/11/05 08:11:50;;;;;;;39.75;20.98;;;;;;;20.76;36.98;99649.47;5056654;28;20036;-75
2021/11/05 08:14:15;;;;;;;42.80;22.25;;;;;;;20.68;36.68;99630.88;5072974;28;20135;-75
2021/11/05 08:16:41;;;;;;;38.95;21.17;;;;;;;21.00;36.66;99682.91;5090977;28;20040;-76
2021/11/05 08:19:07;;;;;;;39.17;20.75;;;;;;;20.92;36.78;99646.22;5090904;28;20046;-72
2021/11/05 08:21:33;;;;;;;39.70;21.55;;;;;;;20.77;37.00;99661.91;5039614;28;20040;-74
2021/11/05 08:23:59;;;;;;;36.60;20.73;;;;;;;20.63;37.34;99671.22;5072773;28;20487;-71
2021/11/05 08:26:26;;;;;;;36.55;21.42;;;;;;;20.97;36.80;99665.28;5056529;28;20052;-75
2021/11/05 08:28:52;;;;;;;43.28;22.15;;;;;;;20.68;37.70;99667.84;5073026;28;20036;-75
2021/11/05 08:31:18;;;;;;;43.78;22.50;;;;;;;20.66;36.96;99624.06;5090188;28;20517;-73
2021/11/05 08:33:45;;;;;;;44.10;23.92;;;;;;;21.07;37.16;99660.19;5072572;28;20050;-74
2021/11/05 08:36:19;;;;;;;45.67;22.33;;;;;;;21.73;36.69;99635.84;5055483;28;20529;-74
2021/11/05 08:38:48;;;;;;;47.90;22.90;;;;;;;20.89;37.20;99646.66;5086004;28;20361;-72
2021/11/05 08:41:18;;;;;;;43.25;22.85;;;;;;;21.00;37.06;99648.63;5083221;28;20048;-70
2021/11/05 08:43:58;;;;;;;40.45;22.15;;;;;;;21.55;36.20;99647.56;5089006;28;20048;-71
2021/11/05 08:46:29;;;;;;;41.40;22.77;;;;;;;21.42;36.26;99646.88;5090397;28;20087;-71
2021/11/05 08:48:58;;;;;;;42.65;22.08;;;;;;;20.90;36.87;99613.19;5088588;28;20086;-70
2021/11/05 08:51:25;;;;;;;41.53;21.98;;;;;;;21.12;37.06;99654.94;5071856;28;20040;-71
2021/11/05 08:53:51;;;;;;;38.28;21.75;;;;;;;21.02;36.78;99643.84;5071740;28;20040;-71
2021/11/05 08:56:17;;;;;;;44.05;21.65;;;;;;;21.28;36.71;99640.00;5038772;28;20050;-71
2021/11/05 08:58:44;;;;;;;40.60;20.10;;;;;;;21.25;36.63;99635.88;5089778;28;20040;-72
2021/11/05 09:01:11;;;;;;;41.42;20.50;;;;;;;21.27;36.07;99641.03;5071501;28;20047;-72
2021/11/05 09:03:37;;;;;;;39.95;21.05;;;;;;;20.94;36.71;99621.69;5071551;28;20039;-72
2021/11/05 09:06:03;;;;;;;36.20;21.27;;;;;;;21.02;36.69;99640.31;5088904;28;20052;-71
2021/11/05 09:08:32;;;;;;;42.33;20.60;;;;;;;20.67;37.15;99631.94;5089598;28;20147;-71
2021/11/05 09:11:02;;;;;;;37.25;20.67;;;;;;;21.22;36.60;99638.19;5071817;28;20458;-71
2021/11/05 09:13:35;;;;;;;37.87;20.33;;;;;;;21.62;36.30;99623.94;5089328;28;20133;-71
2021/11/05 09:16:02;;;;;;;38.00;19.67;;;;;;;21.35;36.05;99633.47;5038001;28;20310;-72
2021/11/05 09:18:37;;;;;;;34.20;19.33;;;;;;;21.13;36.13;99613.38;5090329;28;20036;-71
2021/11/05 09:21:04;;;;;;;34.50;19.52;;;;;;;21.22;35.80;99613.88;5039209;28;20461;-71
2021/11/05 09:23:30;;;;;;;34.30;20.08;;;;;;;21.38;36.02;99611.41;5071340;28;20135;-71
2021/11/05 09:25:56;;;;;;;37.25;19.95;;;;;;;21.38;36.03;99619.50;5054441;28;20454;-71
2021/11/05 09:28:22;;;;;;;37.97;20.20;;;;;;;21.31;36.18;99599.03;5054754;28;20044;-72
2021/11/05 09:30:48;;;;;;;32.58;18.58;;;;;;;21.04;36.14;99598.53;5071332;28;20036;-74
2021/11/05 09:33:14;;;;;;;33.25;19.30;;;;;;;21.12;36.20;99606.34;5037418;28;20039;-71
2021/11/05 09:35:40;;;;;;;36.40;18.83;;;;;;;21.11;36.28;99598.47;5070612;28;20040;-72
2021/11/05 09:38:06;;;;;;;47.47;20.23;;;;;;;21.16;36.19;99599.41;5070840;28;20393;-70
2021/11/05 09:40:32;;;;;;;36.38;19.60;;;;;;;20.95;36.33;99582.81;5037588;28;20131;-70
2021/11/05 09:42:59;;;;;;;34.53;19.20;;;;;;;21.41;36.29;99583.91;5088773;28;20040;-72
2021/11/05 09:45:30;;;;;;;36.20;18.85;;;;;;;21.37;36.19;99582.72;5088755;28;20699;-73
2021/11/05 09:47:58;;;;;;;35.20;18.80;;;;;;;21.19;37.28;99581.91;5055340;28;20051;-72
2021/11/05 09:50:23;;;;;;;34.15;18.67;;;;;;;21.00;37.17;99591.91;5070766;28;20126;-70
2021/11/05 09:52:50;;;;;;;35.95;19.48;;;;;;;20.91;37.07;99581.63;5037067;28;20155;-70
2021/11/05 09:55:17;;;;;;;38.10;20.30;;;;;;;21.15;36.91;99549.16;5078809;28;20591;-71
2021/11/05 09:57:43;;;;;;;34.40;19.05;;;;;;;21.09;36.89;99577.09;5080676;28;20131;-71
2021/11/05 10:00:12;;;;;;;38.47;20.15;;;;;;;21.19;36.98;99579.22;5076637;28;20148;-72
2021/11/05 10:02:43;;;;;;;41.28;19.02;;;;;;;21.33;36.75;99554.50;5070579;28;20086;-73
2021/11/05 10:05:11;;;;;;;35.03;18.98;;;;;;;21.11;36.85;99555.25;5050306;28;20064;-70
2021/11/05 10:07:54;;;;;;;36.25;18.67;;;;;;;22.22;35.29;99572.50;5068393;28;20076;-69
2021/11/05 10:10:27;;;;;;;35.63;18.58;;;;;;;21.86;35.85;99551.88;5070651;28;20040;-69
2021/11/05 10:12:55;;;;;;;35.58;19.70;;;;;;;21.82;35.67;99558.00;5072103;28;20041;-72
2021/11/05 10:15:27;;;;;;;35.20;19.17;;;;;;;21.90;35.66;99539.53;5088758;28;20040;-71
2021/11/05 10:18:12;;;;;;;32.97;18.20;;;;;;;21.88;35.67;99543.53;5057370;28;20040;-72
2021/11/05 10:20:38;;;;;;;36.80;20.63;;;;;;;21.62;36.01;99528.50;5074367;28;20052;-71
2021/11/05 10:23:06;;;;;;;45.05;20.88;;;;;;;21.32;36.21;99535.84;5091607;28;20124;-71
2021/11/05 10:25:44;;;;;;;36.78;19.52;;;;;;;22.22;35.30;99511.09;5091264;28;20040;-72
2021/11/05 10:28:15;;;;;;;32.22;19.10;;;;;;;22.34;35.35;99520.00;5073611;28;20044;-71
2021/11/05 10:30:44;;;;;;;44.67;21.17;;;;;;;22.17;35.41;99518.28;5072918;28;20119;-71
2021/11/05 10:33:15;;;;;;;40.25;21.30;;;;;;;22.25;35.52;99497.09;5071471;28;20047;-72
2021/11/05 10:35:42;;;;;;;40.33;21.30;;;;;;;22.12;35.52;99500.03;5071136;28;20036;-71
2021/11/05 10:38:11;;;;;;;47.42;23.15;;;;;;;22.05;35.83;99488.50;5039642;28;20567;-71
2021/11/05 10:40:41;;;;;;;48.55;22.63;;;;;;;21.92;36.05;99502.28;5090175;28;20487;-71
2021/11/05 10:43:08;;;;;;;43.45;22.88;;;;;;;22.13;35.70;99476.50;5072446;28;20077;-72
2021/11/05 10:45:37;;;;;;;50.78;23.15;;;;;;;22.29;35.45;99473.94;5071872;28;20044;-72
2021/11/05 10:48:12;;;;;;;45.20;23.67;;;;;;;22.09;36.04;99489.69;5055566;28;20563;-70
2021/11/05 10:50:49;;;;;;;46.15;22.63;;;;;;;22.34;35.45;99487.53;5090496;28;20043;-71
2021/11/05 10:53:25;;;;;;;44.75;23.42;;;;;;;22.18;36.12;99455.81;5088831;28;20123;-72
2021/11/05 10:55:58;;;;;;;52.45;24.08;;;;;;;21.96;36.11;99467.47;5070998;28;20036;-72
2021/11/05 10:58:31;;;;;;;46.97;23.95;;;;;;;22.29;35.70;99454.97;5055598;28;20040;-73
2021/11/05 11:00:59;;;;;;;48.95;24.45;;;;;;;22.09;36.32;99451.84;5090384;28;20044;-71
2021/11/05 11:03:31;;;;;;;48.40;23.52;;;;;;;22.14;36.13;99454.63;5072124;28;20633;-71
2021/11/05 11:06:38;;;;;;;44.80;24.40;;;;;;;22.25;36.08;99478.16;5056376;28;20109;-71
2021/11/05 11:09:43;;;;;;;46.03;24.63;;;;;;;22.44;35.72;99468.84;5074274;28;20048;-68
2021/11/05 11:12:31;;;;;;;47.10;23.83;;;;;;;22.50;35.39;99475.16;5094111;28;20048;-72
2021/11/05 11:14:57;;;;;;;46.10;22.80;;;;;;;22.00;36.17;99464.06;5068938;28;20242;-72